Pagrindinis puslapis
METAR-TAF:

METAR-TAF

Oro uostai :

Miri, Malaizija

platuma: 04-20N, ilguma: 113-59E, Aukštis: 17 m

Dabartinis oras

Ataskaita buvo paskelbta 36 minutes, ne 20:00 UTC
Vėjas 2 kt nuo kintamojo kryptimis
Temperatūra 26°C
Drėgmė 89%
Slėgis 1010 hPa
Matomumas: 6000 m
Išsisklaidę debesys ne aukštis 1600 ft
Su prošvaistėmis ne aukštis 15000 ft

METAR: WBGR 202000Z VRB02KT 6000 SCT016 BKN150 26/24 Q1010

Laikas: 04:36 (20:36 UTC)

Prognozė

Ataskaita buvo paskelbta 3 valandos ir 36 minutes, ne 17:00 UTC
Prognozė galioja nuo 20 metu 18 UTC su 21 metu 18 UTC
Vėjas 7 kt iš Šiaurės
Matomumas: 6000 m
Mažai debesys ne aukštis 1600 ft

TAF: WBGR 201700Z 2018/2118 35007KT 6000 FEW016

Orai ataskaitas ir orų prognozės (METAR, TAF).

turimą stotys yra geltonos ir raudonos taškus žemėlapyje.

Perkelti pele per norėdami pamatyti stoties vardą.

Tada spustelėkite, norėdami matyti oro stebėjimo ir prognozės.

Norėdami pakeisti žemėlapį: spustelėkite ant žalios mygtukų su juodo kryžiaus žemyn,; žalią mygtuką su brūkšneliu, jei norite nutolinti; arba žalių rodyklių gretimoms žemėlapius.


METAR-TAF: